Oklahoma City, Oklahoma
Current Conditions -  °F | °C
As of 9:38 PM on Saturday 22 Nov 2014 (Local Time) from KOKC Reporting Station
Overcast Overcast  
Wind Chill: 57°   Ceiling: 700
Heat Index: 57°   Visibility: 10mi
Dew Point: 54°   Wind: 16mph
Humidity: 88%   Direction: 150°SSE
Pressure: 29.7"   Gusts: NA
Location:  35.47°N, 97.52°W
Report Text: KOKC 230338Z 15014KT 10SM OVC007 14/12 A2970 RMK AO2
Loading
Personal Weather Stations






























Interactive Weather Map New forecast layout! Learn more

10-Day Weather Forecast

Advertisements
Track Severe Weather on mobile